createdAt,value
2023-02-07T00:01:44.539Z,3.76
2023-02-07T00:04:10.960Z,3.68
2023-02-07T00:06:37.357Z,3.64
2023-02-07T00:09:03.821Z,3.75
2023-02-07T00:11:30.219Z,3.44
2023-02-07T00:13:56.584Z,3.53
2023-02-07T00:16:22.990Z,3.80
2023-02-07T00:18:49.396Z,3.83
2023-02-07T00:21:15.771Z,3.59
2023-02-07T00:23:42.157Z,3.55
2023-02-07T00:26:08.528Z,3.58
2023-02-07T00:28:35.032Z,3.57
2023-02-07T00:31:01.601Z,3.80
2023-02-07T00:33:28.000Z,3.76
2023-02-07T00:35:54.398Z,3.66
2023-02-07T00:38:20.801Z,3.70
2023-02-07T00:40:47.163Z,3.89
2023-02-07T00:43:21.505Z,3.49
2023-02-07T00:45:55.337Z,3.57
2023-02-07T00:48:21.733Z,3.61
2023-02-07T00:50:48.097Z,3.61
2023-02-07T00:53:14.713Z,3.44
2023-02-07T00:55:41.127Z,3.68
2023-02-07T00:58:07.492Z,3.64
2023-02-07T01:00:33.954Z,3.79
2023-02-07T01:03:00.332Z,3.59
2023-02-07T01:05:26.700Z,3.58
2023-02-07T01:07:53.088Z,3.56
2023-02-07T01:10:19.449Z,3.44
2023-02-07T01:12:45.848Z,3.53
2023-02-07T01:15:12.199Z,3.69
2023-02-07T01:17:38.550Z,3.60
2023-02-07T01:20:04.952Z,3.60
2023-02-07T01:22:31.340Z,3.85
2023-02-07T01:24:57.699Z,3.50
2023-02-07T01:27:24.080Z,3.77
2023-02-07T01:29:50.458Z,3.73
2023-02-07T01:32:16.824Z,3.50
2023-02-07T01:34:43.186Z,3.64
2023-02-07T01:37:09.542Z,3.49
2023-02-07T01:39:35.909Z,3.43
2023-02-07T01:42:02.278Z,3.66
2023-02-07T01:44:28.653Z,3.54
2023-02-07T01:46:55.032Z,3.72
2023-02-07T01:49:21.396Z,3.33
2023-02-07T01:51:47.747Z,3.40
2023-02-07T01:54:14.133Z,3.63
2023-02-07T01:56:40.510Z,3.81
2023-02-07T01:59:06.882Z,3.50
2023-02-07T02:01:33.298Z,3.41
2023-02-07T02:03:59.698Z,3.29
2023-02-07T02:06:26.090Z,3.36
2023-02-07T02:08:52.486Z,3.52
2023-02-07T02:11:18.863Z,3.84
2023-02-07T02:13:45.252Z,3.58
2023-02-07T02:16:11.667Z,3.58
2023-02-07T02:18:38.052Z,3.55
2023-02-07T02:21:04.438Z,3.64
2023-02-07T02:23:30.841Z,3.73
2023-02-07T02:25:57.201Z,3.82
2023-02-07T02:28:23.584Z,3.66
2023-02-07T02:30:49.997Z,3.80
2023-02-07T02:33:16.489Z,3.44
2023-02-07T02:35:42.920Z,3.48
2023-02-07T02:38:09.288Z,3.57
2023-02-07T02:40:35.643Z,3.69
2023-02-07T02:43:02.041Z,3.39
2023-02-07T02:45:28.408Z,3.51
2023-02-07T02:47:54.758Z,3.45
2023-02-07T02:50:21.145Z,3.54
2023-02-07T02:52:50.950Z,3.76
2023-02-07T02:55:17.637Z,3.88
2023-02-07T02:57:43.985Z,3.39
2023-02-07T03:00:10.359Z,3.63
2023-02-07T03:02:36.734Z,3.87
2023-02-07T03:05:03.124Z,3.64
2023-02-07T03:07:29.518Z,3.62
2023-02-07T03:09:55.938Z,3.66
2023-02-07T03:12:22.439Z,3.61
2023-02-07T03:14:48.828Z,3.65
2023-02-07T03:17:15.209Z,3.62
2023-02-07T03:19:41.582Z,3.71
2023-02-07T03:22:07.968Z,3.78
2023-02-07T03:24:34.324Z,3.45
2023-02-07T03:27:00.708Z,3.67
2023-02-07T03:29:27.063Z,3.74
2023-02-07T03:31:53.422Z,3.66
2023-02-07T03:34:19.796Z,3.76
2023-02-07T03:36:46.214Z,3.79
2023-02-07T03:39:12.586Z,3.53
2023-02-07T03:41:38.987Z,3.68
2023-02-07T03:44:05.345Z,3.47
2023-02-07T03:46:31.788Z,3.53
2023-02-07T03:48:58.204Z,3.70
2023-02-07T03:51:24.553Z,3.74
2023-02-07T03:53:51.027Z,3.73
2023-02-07T03:56:17.403Z,3.64
2023-02-07T03:58:43.874Z,3.82
2023-02-07T04:01:10.249Z,3.65
2023-02-07T04:03:36.657Z,3.79
2023-02-07T04:06:03.169Z,3.90
2023-02-07T04:08:29.526Z,3.82
2023-02-07T04:10:55.898Z,3.75
2023-02-07T04:13:22.276Z,3.84
2023-02-07T04:15:48.816Z,3.71
2023-02-07T04:18:15.215Z,3.79
2023-02-07T04:20:41.574Z,3.64
2023-02-07T04:23:07.924Z,3.69
2023-02-07T04:25:34.300Z,3.73
2023-02-07T04:28:00.716Z,3.65
2023-02-07T04:30:27.114Z,3.70
2023-02-07T04:32:53.488Z,3.83
2023-02-07T04:35:19.847Z,3.73
2023-02-07T04:37:46.213Z,3.84
2023-02-07T04:40:12.563Z,3.70
2023-02-07T04:42:38.914Z,4.00
2023-02-07T04:45:05.286Z,3.64
2023-02-07T04:47:31.660Z,3.68
2023-02-07T04:49:58.051Z,3.84
2023-02-07T04:52:24.433Z,3.52
2023-02-07T04:54:50.838Z,3.58
2023-02-07T04:57:17.246Z,3.53
2023-02-07T04:59:43.606Z,3.58
2023-02-07T05:02:09.960Z,4.07
2023-02-07T05:04:36.409Z,3.60
2023-02-07T05:07:02.794Z,3.57
2023-02-07T05:09:29.174Z,3.43
2023-02-07T05:11:55.556Z,3.60
2023-02-07T05:14:21.904Z,3.77
2023-02-07T05:16:48.280Z,3.87
2023-02-07T05:19:14.696Z,3.66
2023-02-07T05:21:41.188Z,3.75
2023-02-07T05:24:07.549Z,4.01
2023-02-07T05:26:33.914Z,3.70
2023-02-07T05:29:00.323Z,3.60
2023-02-07T05:31:26.780Z,3.54
2023-02-07T05:33:53.212Z,3.63
2023-02-07T05:36:19.613Z,3.79
2023-02-07T05:38:45.981Z,3.72
2023-02-07T05:41:12.355Z,4.08
2023-02-07T05:43:38.794Z,3.78
2023-02-07T05:46:05.241Z,3.85
2023-02-07T05:48:31.608Z,3.79
2023-02-07T05:50:57.968Z,3.87
2023-02-07T05:53:24.329Z,3.98
2023-02-07T05:55:50.709Z,3.92
2023-02-07T05:58:17.119Z,3.88
2023-02-07T06:00:43.510Z,3.77
2023-02-07T06:03:09.938Z,3.76
2023-02-07T06:05:36.567Z,3.66
2023-02-07T06:08:03.001Z,3.93
2023-02-07T06:10:29.366Z,3.80
2023-02-07T06:12:55.829Z,3.69
2023-02-07T06:15:22.181Z,3.62
2023-02-07T06:17:48.531Z,3.47
2023-02-07T06:20:14.907Z,3.88
2023-02-07T06:22:41.311Z,3.82
2023-02-07T06:25:11.190Z,3.95
2023-02-07T06:27:37.564Z,3.87
2023-02-07T06:30:03.940Z,4.01
2023-02-07T06:32:32.139Z,3.89
2023-02-07T06:35:00.366Z,3.82
2023-02-07T06:37:27.888Z,3.82
2023-02-07T06:39:54.272Z,3.76
2023-02-07T06:42:20.663Z,3.85
2023-02-07T06:44:47.030Z,3.83
2023-02-07T06:47:13.402Z,3.68
2023-02-07T06:49:39.797Z,3.70
2023-02-07T06:52:06.190Z,3.60
2023-02-07T06:54:32.557Z,3.68
2023-02-07T06:56:58.909Z,3.72
2023-02-07T06:59:25.275Z,3.98
2023-02-07T07:01:51.723Z,3.81
2023-02-07T07:04:18.146Z,3.87
2023-02-07T07:06:44.535Z,3.70
2023-02-07T07:09:10.897Z,3.49
2023-02-07T07:11:37.287Z,3.81
2023-02-07T07:14:03.720Z,3.78
2023-02-07T07:16:30.086Z,4.02
2023-02-07T07:18:56.451Z,3.86
2023-02-07T07:21:22.989Z,3.98
2023-02-07T07:23:49.359Z,3.97
2023-02-07T07:26:15.853Z,3.96
2023-02-07T07:28:42.202Z,3.81
2023-02-07T07:31:08.639Z,3.97
2023-02-07T07:33:35.152Z,3.92
2023-02-07T07:36:01.560Z,4.19
2023-02-07T07:38:27.952Z,3.95
2023-02-07T07:40:54.320Z,4.34
2023-02-07T07:43:20.703Z,3.83
2023-02-07T07:45:47.075Z,4.06
2023-02-07T07:48:13.599Z,3.82
2023-02-07T07:50:40.385Z,3.88
2023-02-07T07:53:07.004Z,4.24
2023-02-07T07:55:33.381Z,3.84
2023-02-07T07:57:59.998Z,3.96
2023-02-07T08:00:26.385Z,3.80
2023-02-07T08:02:52.793Z,3.98
2023-02-07T08:05:19.167Z,4.18
2023-02-07T08:07:45.528Z,4.05
2023-02-07T08:10:11.932Z,4.12
2023-02-07T08:12:38.327Z,3.82
2023-02-07T08:15:04.741Z,3.70
2023-02-07T08:17:31.099Z,3.60
2023-02-07T08:19:57.473Z,3.93
2023-02-07T08:22:23.826Z,3.78
2023-02-07T08:24:50.218Z,3.62
2023-02-07T08:27:16.588Z,3.78
2023-02-07T08:29:42.927Z,3.89
2023-02-07T08:32:09.389Z,3.72
2023-02-07T08:34:35.812Z,3.70
2023-02-07T08:37:02.171Z,3.87
2023-02-07T08:39:28.557Z,3.88
2023-02-07T08:41:54.930Z,3.59
2023-02-07T08:44:21.296Z,3.68
2023-02-07T08:46:47.731Z,3.68
2023-02-07T08:49:14.090Z,3.70
2023-02-07T08:51:40.462Z,3.76
2023-02-07T08:54:06.850Z,3.56
2023-02-07T08:56:33.213Z,3.68
2023-02-07T08:58:59.557Z,4.05
2023-02-07T09:01:25.968Z,3.86
2023-02-07T09:03:52.367Z,3.71
2023-02-07T09:06:18.754Z,3.67
2023-02-07T09:08:45.132Z,3.72
2023-02-07T09:11:11.564Z,3.76
2023-02-07T09:13:37.988Z,3.50
2023-02-07T09:16:04.378Z,3.61
2023-02-07T09:18:30.749Z,3.54
2023-02-07T09:20:57.164Z,3.69
2023-02-07T09:23:23.577Z,3.30
2023-02-07T09:25:49.965Z,3.31
2023-02-07T09:28:16.491Z,3.53
2023-02-07T09:30:42.913Z,3.41
2023-02-07T09:33:09.342Z,3.24
2023-02-07T09:35:35.719Z,3.27
2023-02-07T09:38:02.127Z,3.38
2023-02-07T09:40:28.499Z,3.32
2023-02-07T09:42:54.883Z,3.24
2023-02-07T09:45:21.420Z,3.09
2023-02-07T09:47:47.880Z,3.34
2023-02-07T09:50:14.262Z,3.25
2023-02-07T09:52:40.657Z,3.30
2023-02-07T09:55:07.044Z,3.46
2023-02-07T09:57:33.406Z,3.14
2023-02-07T09:59:59.778Z,2.93
2023-02-07T10:02:26.219Z,3.32
2023-02-07T10:04:52.634Z,3.07
2023-02-07T10:07:19.024Z,3.23
2023-02-07T10:09:45.378Z,3.26
2023-02-07T10:12:11.732Z,3.06
2023-02-07T10:14:38.121Z,3.14
2023-02-07T10:17:04.492Z,3.03
2023-02-07T10:19:30.838Z,3.10
2023-02-07T10:21:57.217Z,3.23
2023-02-07T10:24:23.589Z,3.30
2023-02-07T10:26:49.950Z,3.23
2023-02-07T10:29:16.311Z,3.42
2023-02-07T10:31:42.683Z,3.20
2023-02-07T10:34:09.083Z,3.06
2023-02-07T10:36:35.437Z,3.02
2023-02-07T10:39:08.815Z,3.08
2023-02-07T10:41:35.505Z,3.18
2023-02-07T10:44:01.883Z,3.05
2023-02-07T10:46:28.288Z,3.13
2023-02-07T10:48:54.697Z,3.11
2023-02-07T10:51:21.070Z,3.17
2023-02-07T10:53:54.735Z,3.15
2023-02-07T10:56:21.279Z,3.00
2023-02-07T10:58:47.641Z,3.00
2023-02-07T11:01:14.034Z,2.99
2023-02-07T11:03:40.434Z,2.99
2023-02-07T11:06:06.840Z,3.15
2023-02-07T11:08:33.228Z,3.23
2023-02-07T11:10:59.593Z,3.09
2023-02-07T11:13:27.333Z,3.14
2023-02-07T11:15:54.448Z,3.01
2023-02-07T11:18:20.844Z,3.31
2023-02-07T11:20:47.195Z,3.08
2023-02-07T11:23:13.569Z,3.20
2023-02-07T11:25:40.371Z,3.23
2023-02-07T11:28:07.194Z,3.34
2023-02-07T11:30:33.653Z,3.41
2023-02-07T11:33:00.064Z,3.39
2023-02-07T11:35:26.432Z,3.38
2023-02-07T11:37:52.779Z,3.60
2023-02-07T11:40:19.157Z,3.21
2023-02-07T11:42:45.527Z,3.02
2023-02-07T11:45:11.902Z,3.51
2023-02-07T11:47:38.308Z,3.33
2023-02-07T11:50:04.706Z,3.42
2023-02-07T11:52:31.054Z,3.65
2023-02-07T11:54:57.416Z,3.38
2023-02-07T11:57:23.786Z,3.27
2023-02-07T11:59:50.160Z,3.64
2023-02-07T12:02:16.596Z,3.74
2023-02-07T12:04:42.980Z,3.56
2023-02-07T12:07:09.395Z,3.58
2023-02-07T12:09:35.779Z,3.63
2023-02-07T12:12:02.153Z,3.54
2023-02-07T12:14:28.553Z,3.47
2023-02-07T12:16:54.911Z,3.56
2023-02-07T12:19:21.334Z,3.41
2023-02-07T12:21:47.712Z,3.78
2023-02-07T12:24:14.159Z,3.63
2023-02-07T12:26:40.537Z,3.55
2023-02-07T12:29:13.137Z,3.73
2023-02-07T12:31:40.428Z,3.79
2023-02-07T12:34:06.886Z,3.90
2023-02-07T12:36:33.368Z,3.59
2023-02-07T12:38:59.722Z,3.97
2023-02-07T12:41:26.128Z,3.82
2023-02-07T12:43:52.514Z,3.78
2023-02-07T12:46:18.900Z,3.58
2023-02-07T12:48:45.306Z,3.73
2023-02-07T12:51:11.682Z,3.86
2023-02-07T12:53:38.055Z,3.89
2023-02-07T12:56:04.455Z,3.70
2023-02-07T12:58:30.882Z,3.82
2023-02-07T13:00:57.283Z,4.01
2023-02-07T13:03:23.693Z,4.07
2023-02-07T13:05:50.046Z,3.87
2023-02-07T13:08:16.415Z,4.13
2023-02-07T13:10:42.787Z,4.08
2023-02-07T13:13:09.192Z,3.97
2023-02-07T13:15:35.786Z,4.12
2023-02-07T13:18:02.208Z,3.97
2023-02-07T13:20:28.565Z,4.25
2023-02-07T13:22:54.969Z,4.16
2023-02-07T13:25:21.352Z,4.02
2023-02-07T13:27:47.730Z,4.22
2023-02-07T13:30:14.112Z,3.95
2023-02-07T13:32:40.599Z,3.78
2023-02-07T13:35:06.975Z,4.13
2023-02-07T13:37:33.336Z,3.96
2023-02-07T13:39:59.718Z,4.06
2023-02-07T13:42:26.201Z,3.98
2023-02-07T13:44:52.560Z,3.91
2023-02-07T13:47:18.937Z,4.17
2023-02-07T13:49:45.291Z,3.97
2023-02-07T13:52:11.960Z,3.95
2023-02-07T13:54:38.461Z,4.01
2023-02-07T13:57:04.817Z,3.77
2023-02-07T13:59:31.187Z,4.11
2023-02-07T14:01:57.550Z,4.02
2023-02-07T14:04:23.900Z,4.36
2023-02-07T14:06:50.298Z,4.45
2023-02-07T14:09:16.663Z,4.43
2023-02-07T14:11:43.030Z,4.08
2023-02-07T14:14:10.791Z,4.38
2023-02-07T14:16:37.202Z,4.26
2023-02-07T14:19:03.596Z,3.93
2023-02-07T14:21:29.958Z,4.13
2023-02-07T14:23:56.311Z,3.96
2023-02-07T14:26:22.824Z,4.03
2023-02-07T14:28:49.229Z,4.16
2023-02-07T14:31:15.708Z,4.08
2023-02-07T14:33:42.143Z,4.22
2023-02-07T14:36:08.518Z,4.05
2023-02-07T14:38:34.913Z,3.84
2023-02-07T14:41:10.191Z,3.92
2023-02-07T14:43:37.633Z,4.11
2023-02-07T14:46:04.016Z,4.22
2023-02-07T14:48:30.420Z,3.82
2023-02-07T14:50:56.837Z,4.16
2023-02-07T14:53:23.205Z,3.90
2023-02-07T14:55:49.593Z,3.88
2023-02-07T14:58:15.952Z,4.05
2023-02-07T15:00:42.358Z,4.09
2023-02-07T15:03:08.787Z,4.09
2023-02-07T15:05:35.156Z,3.88
2023-02-07T15:08:01.533Z,4.01
2023-02-07T15:10:27.992Z,4.06
2023-02-07T15:12:54.386Z,4.10
2023-02-07T15:15:20.791Z,3.98
2023-02-07T15:17:47.158Z,4.12
2023-02-07T15:20:13.506Z,4.02
2023-02-07T15:22:39.979Z,4.09
2023-02-07T15:25:06.335Z,3.83
2023-02-07T15:27:32.731Z,4.23
2023-02-07T15:29:59.126Z,4.06
2023-02-07T15:32:25.581Z,4.02
2023-02-07T15:34:52.078Z,4.09
2023-02-07T15:37:18.454Z,4.24
2023-02-07T15:39:44.808Z,4.31
2023-02-07T15:42:11.192Z,4.32
2023-02-07T15:44:37.568Z,4.36
2023-02-07T15:47:05.459Z,4.14
2023-02-07T15:49:32.830Z,4.37
2023-02-07T15:51:59.203Z,4.26
2023-02-07T15:54:26.740Z,4.28
2023-02-07T15:56:54.148Z,4.35
2023-02-07T15:59:20.493Z,4.25
2023-02-07T16:01:46.927Z,4.24
2023-02-07T16:04:13.312Z,4.26
2023-02-07T16:06:39.770Z,4.11
2023-02-07T16:09:06.144Z,4.30
2023-02-07T16:11:32.549Z,4.11
2023-02-07T16:13:58.934Z,4.24
2023-02-07T16:16:25.327Z,4.09
2023-02-07T16:18:51.752Z,4.20
2023-02-07T16:21:18.109Z,4.17
2023-02-07T16:23:44.464Z,4.07
2023-02-07T16:26:10.856Z,4.30
2023-02-07T16:28:37.246Z,4.36
2023-02-07T16:31:03.616Z,4.30
2023-02-07T16:33:30.045Z,4.18
2023-02-07T16:35:56.416Z,3.98
2023-02-07T16:38:22.764Z,4.24
2023-02-07T16:40:49.133Z,4.20
2023-02-07T16:43:15.494Z,4.20
2023-02-07T16:45:41.933Z,4.13
2023-02-07T16:48:08.325Z,4.13
2023-02-07T16:50:34.687Z,4.27
2023-02-07T16:53:01.075Z,3.88
2023-02-07T16:55:27.525Z,3.96
2023-02-07T16:57:53.899Z,4.07
2023-02-07T17:00:20.314Z,4.02
2023-02-07T17:02:46.661Z,4.03
2023-02-07T17:05:13.027Z,3.97
2023-02-07T17:07:39.406Z,4.06
2023-02-07T17:10:05.811Z,4.01
2023-02-07T17:12:32.175Z,4.05
2023-02-07T17:14:58.548Z,3.98
2023-02-07T17:17:24.925Z,3.97
2023-02-07T17:19:51.269Z,3.71
2023-02-07T17:22:17.673Z,4.03
2023-02-07T17:24:44.038Z,4.01
2023-02-07T17:27:10.397Z,4.06
2023-02-07T17:29:36.787Z,3.87
2023-02-07T17:32:03.199Z,3.63
2023-02-07T17:34:29.629Z,3.87
2023-02-07T17:36:56.012Z,3.98
2023-02-07T17:39:22.364Z,3.77
2023-02-07T17:41:48.720Z,3.87
2023-02-07T17:44:15.096Z,3.81
2023-02-07T17:46:41.459Z,4.12
2023-02-07T17:49:07.828Z,3.91
2023-02-07T17:51:34.191Z,3.96
2023-02-07T17:54:00.578Z,3.68
2023-02-07T17:56:26.947Z,4.07
2023-02-07T17:58:53.311Z,4.13
2023-02-07T18:01:19.895Z,3.80
2023-02-07T18:03:46.294Z,4.00
2023-02-07T18:06:12.656Z,4.02
2023-02-07T18:08:39.053Z,3.75
2023-02-07T18:11:05.421Z,3.88
2023-02-07T18:13:31.768Z,4.18
2023-02-07T18:15:58.165Z,3.85
2023-02-07T18:18:24.541Z,4.11
2023-02-07T18:20:50.947Z,4.42
2023-02-07T18:23:17.336Z,4.49
2023-02-07T18:25:43.690Z,4.20
2023-02-07T18:28:10.156Z,4.02
2023-02-07T18:30:36.593Z,4.00
2023-02-07T18:33:03.039Z,3.99
2023-02-07T18:35:29.398Z,3.96
2023-02-07T18:37:55.799Z,4.02
2023-02-07T18:40:22.175Z,3.94
2023-02-07T18:42:48.548Z,4.20
2023-02-07T18:45:14.919Z,4.18
2023-02-07T18:47:41.313Z,4.13
2023-02-07T18:50:07.674Z,4.06
2023-02-07T18:52:34.043Z,4.36
2023-02-07T18:55:00.420Z,4.23
2023-02-07T18:57:26.778Z,4.20
2023-02-07T18:59:53.187Z,4.23
2023-02-07T19:02:19.605Z,4.43
2023-02-07T19:04:46.019Z,4.64
2023-02-07T19:07:12.411Z,4.26
2023-02-07T19:09:38.779Z,4.68
2023-02-07T19:12:05.162Z,4.55
2023-02-07T19:14:31.553Z,4.79
2023-02-07T19:16:57.949Z,4.72
2023-02-07T19:19:24.360Z,5.01
2023-02-07T19:21:50.733Z,5.29
2023-02-07T19:24:17.100Z,5.24
2023-02-07T19:26:43.487Z,5.12
2023-02-07T19:29:09.857Z,5.44
2023-02-07T19:31:36.251Z,5.57
2023-02-07T19:34:02.675Z,5.64
2023-02-07T19:36:29.042Z,6.00
2023-02-07T19:38:55.455Z,6.23
2023-02-07T19:41:21.803Z,6.14
2023-02-07T19:43:48.200Z,6.20
2023-02-07T19:46:14.572Z,5.89
2023-02-07T19:48:40.971Z,6.23
2023-02-07T19:51:07.344Z,6.52
2023-02-07T19:53:33.725Z,6.43
2023-02-07T19:56:00.094Z,6.47
2023-02-07T19:58:26.468Z,6.82
2023-02-07T20:00:52.833Z,6.63
2023-02-07T20:03:19.200Z,6.51
2023-02-07T20:05:45.593Z,6.37
2023-02-07T20:08:11.933Z,6.50
2023-02-07T20:10:38.529Z,6.53
2023-02-07T20:13:05.072Z,6.62
2023-02-07T20:15:31.430Z,6.77
2023-02-07T20:17:57.898Z,6.74
2023-02-07T20:20:24.275Z,6.71
2023-02-07T20:22:50.656Z,6.73
2023-02-07T20:25:17.065Z,6.66
2023-02-07T20:27:43.533Z,6.32
2023-02-07T20:30:09.882Z,6.30
2023-02-07T20:32:36.294Z,6.96
2023-02-07T20:35:02.664Z,6.82
2023-02-07T20:37:29.060Z,6.81
2023-02-07T20:39:55.435Z,6.87
2023-02-07T20:42:21.787Z,6.42
2023-02-07T20:44:48.151Z,6.59
2023-02-07T20:47:14.522Z,6.64
2023-02-07T20:49:40.893Z,6.80
2023-02-07T20:52:07.257Z,6.55
2023-02-07T20:54:33.624Z,6.48
2023-02-07T20:57:00.001Z,6.86
2023-02-07T20:59:26.371Z,6.64
2023-02-07T21:01:52.750Z,6.56
2023-02-07T21:04:19.142Z,6.58
2023-02-07T21:06:45.546Z,6.60
2023-02-07T21:09:12.092Z,6.80
2023-02-07T21:11:38.517Z,6.51
2023-02-07T21:14:04.889Z,6.50
2023-02-07T21:16:31.312Z,6.43
2023-02-07T21:18:57.717Z,6.70
2023-02-07T21:21:24.084Z,6.75
2023-02-07T21:23:50.468Z,7.14
2023-02-07T21:26:16.831Z,6.41
2023-02-07T21:28:43.212Z,6.73
2023-02-07T21:31:09.641Z,6.54
2023-02-07T21:33:36.028Z,6.52
2023-02-07T21:36:02.380Z,6.76
2023-02-07T21:38:28.783Z,6.32
2023-02-07T21:40:55.146Z,6.57
2023-02-07T21:43:21.536Z,6.61
2023-02-07T21:45:47.916Z,6.44
2023-02-07T21:48:14.290Z,6.55
2023-02-07T21:50:40.945Z,6.84
2023-02-07T21:53:07.481Z,6.67
2023-02-07T21:55:33.833Z,6.65
2023-02-07T21:58:00.212Z,6.80
2023-02-07T22:00:26.572Z,7.11
2023-02-07T22:02:52.947Z,6.87
2023-02-07T22:05:19.321Z,6.86
2023-02-07T22:07:45.689Z,7.20
2023-02-07T22:10:12.062Z,6.90
2023-02-07T22:12:38.414Z,6.72
2023-02-07T22:15:04.756Z,6.79
2023-02-07T22:17:31.146Z,6.92
2023-02-07T22:19:57.509Z,6.40
2023-02-07T22:22:23.879Z,6.80
2023-02-07T22:24:50.251Z,6.77
2023-02-07T22:27:16.636Z,6.54
2023-02-07T22:29:43.018Z,6.33
2023-02-07T22:32:09.396Z,6.72
2023-02-07T22:34:35.815Z,6.52
2023-02-07T22:37:02.165Z,6.63
2023-02-07T22:39:28.555Z,6.52
2023-02-07T22:41:54.918Z,6.44
2023-02-07T22:44:21.274Z,6.31
2023-02-07T22:46:47.641Z,6.41
2023-02-07T22:49:13.983Z,6.29
2023-02-07T22:51:40.456Z,6.55
2023-02-07T22:54:06.804Z,6.45
2023-02-07T22:56:33.153Z,6.30
2023-02-07T22:58:59.517Z,6.45
2023-02-07T23:01:27.979Z,6.39
2023-02-07T23:03:54.367Z,6.35
2023-02-07T23:06:20.762Z,6.45
2023-02-07T23:08:47.164Z,6.07
2023-02-07T23:11:13.608Z,6.32
2023-02-07T23:13:39.968Z,6.46
2023-02-07T23:16:06.384Z,6.50
2023-02-07T23:18:32.764Z,6.18
2023-02-07T23:20:59.131Z,6.17
2023-02-07T23:23:25.508Z,6.19
2023-02-07T23:25:51.872Z,5.90
2023-02-07T23:28:18.318Z,6.20
2023-02-07T23:30:44.970Z,6.21
2023-02-07T23:33:11.408Z,5.89
2023-02-07T23:35:37.759Z,6.24
2023-02-07T23:38:04.126Z,5.88
2023-02-07T23:40:30.753Z,6.06
2023-02-07T23:42:57.124Z,5.80
2023-02-07T23:45:23.473Z,5.91
2023-02-07T23:47:49.949Z,5.88
2023-02-07T23:50:16.329Z,5.94
2023-02-07T23:52:42.702Z,5.95
2023-02-07T23:55:09.078Z,6.09
2023-02-07T23:57:35.435Z,5.99
